Kahului, HI

2:51 PM HST on September 25, 2016 (GMT -1000)
Wailuku Kehalani | | Change Station

Elev 259 ft 20.87 °N, 156.50 °W | Updated 8 seconds ago

Scattered Clouds
Scattered Clouds
80.1 °F
Feels Like 84 °F
N
8.9
Wind Variable Wind from North
Gusts 12.3 mph

Today
High -- | Low -- °F
--% Chance of Precip.
Yesterday
High -- | Low -- °F
Precip. -- in
Pressure 30.04 in
Visibility 10.0 miles
Clouds Few 3500 ft
Scattered Clouds 6000 ft
Heat Index 84 °F
Dew Point 73 °F
Humidity 78%
Rainfall 0.00 in
Snow Depth Not available.
6:15 AM 6:18 PM
Waning Crescent, 23% visible
METAR PHOG 252354Z 04022KT 10SM FEW035 SCT060 30/21 A3002 RMK AO2 PK WND 04026/2318 SLP170 T03000206 10311 20272 58017
Pressure 30.04 in
Visibility 10.0 miles
Clouds Few 3500 ft
Scattered Clouds 6000 ft
Heat Index 84 °F
Dew Point 73 °F
Humidity 78%
Rainfall 0.00 in
Snow Depth Not available.
6:15 AM 6:18 PM
Waning Crescent, 23% visible
METAR PHOG 252354Z 04022KT 10SM FEW035 SCT060 30/21 A3002 RMK AO2 PK WND 04026/2318 SLP170 T03000206 10311 20272 58017

10-Day Weather Forecast

Almanac

Astronomy

Sep. 25, 2016 Rise Set
Actual Time
Civil Twilight
Nautical Twilight
Astronomical Twilight
Moon
Length of Visible Light
Length of Day
Tomorrow will be .
, % of the Moon is Illuminated

Today's Extremes

State Highs State Lows

Community

WunderPhotos

Upload Photos

1,941,797 photos uploaded!

WunderBlog® & News

Nearby

Air Quality

  Air Quality AQ Index Pollutant
Not available.

Snow Depth

Station Depth Elevation

Earthquake Activity

City Distance Mag. Time & Date
Minimum magnitude displayed is 2.5.

Coastal Water Temperatures

Place Temperature

Stations

Nearby Weather Stations

Station Location Temp. Windchill Dew Point Humidity Wind Precip. Elev Updated Type
                   

Watches & Warnings

There are currently no watches in effect.